sensor_id;sensor_type;location;lat;lon;timestamp;temperature;humidity
38902;DHT22;24661;53.566;9.910;2023-09-07T00:01:08;18.50;99.90
38902;DHT22;24661;53.566;9.910;2023-09-07T00:03:33;18.50;99.90
38902;DHT22;24661;53.566;9.910;2023-09-07T00:05:59;18.50;99.90
38902;DHT22;24661;53.566;9.910;2023-09-07T00:08:25;18.50;99.90
38902;DHT22;24661;53.566;9.910;2023-09-07T00:10:51;18.50;99.90
38902;DHT22;24661;53.566;9.910;2023-09-07T00:13:16;18.50;99.90
38902;DHT22;24661;53.566;9.910;2023-09-07T00:15:43;18.50;99.90
38902;DHT22;24661;53.566;9.910;2023-09-07T00:18:08;18.50;99.90
38902;DHT22;24661;53.566;9.910;2023-09-07T00:20:34;18.40;99.90
38902;DHT22;24661;53.566;9.910;2023-09-07T00:23:01;18.30;99.90
38902;DHT22;24661;53.566;9.910;2023-09-07T00:25:27;18.30;99.90
38902;DHT22;24661;53.566;9.910;2023-09-07T00:27:52;18.20;99.90
38902;DHT22;24661;53.566;9.910;2023-09-07T00:30:18;17.60;99.90
38902;DHT22;24661;53.566;9.910;2023-09-07T00:32:44;18.10;99.90
38902;DHT22;24661;53.566;9.910;2023-09-07T00:35:09;18.10;99.90
38902;DHT22;24661;53.566;9.910;2023-09-07T00:37:36;18.10;99.90
38902;DHT22;24661;53.566;9.910;2023-09-07T00:40:02;18.00;99.90
38902;DHT22;24661;53.566;9.910;2023-09-07T00:42:29;18.00;99.90
38902;DHT22;24661;53.566;9.910;2023-09-07T00:44:54;18.00;99.90
38902;DHT22;24661;53.566;9.910;2023-09-07T00:47:20;18.00;99.90
38902;DHT22;24661;53.566;9.910;2023-09-07T00:49:46;17.90;99.90
38902;DHT22;24661;53.566;9.910;2023-09-07T00:52:12;17.90;99.90
38902;DHT22;24661;53.566;9.910;2023-09-07T00:54:38;17.90;99.90
38902;DHT22;24661;53.566;9.910;2023-09-07T00:57:06;17.90;99.90
38902;DHT22;24661;53.566;9.910;2023-09-07T00:59:35;17.90;99.90
38902;DHT22;24661;53.566;9.910;2023-09-07T01:02:00;17.80;99.90
38902;DHT22;24661;53.566;9.910;2023-09-07T01:04:26;17.80;99.90
38902;DHT22;24661;53.566;9.910;2023-09-07T01:06:57;17.80;99.90
38902;DHT22;24661;53.566;9.910;2023-09-07T01:09:28;17.80;99.90
38902;DHT22;24661;53.566;9.910;2023-09-07T01:11:55;17.80;99.90
38902;DHT22;24661;53.566;9.910;2023-09-07T01:14:21;17.80;99.90
38902;DHT22;24661;53.566;9.910;2023-09-07T01:16:48;17.80;99.90
38902;DHT22;24661;53.566;9.910;2023-09-07T01:19:14;17.80;99.90
38902;DHT22;24661;53.566;9.910;2023-09-07T01:21:40;17.80;99.90
38902;DHT22;24661;53.566;9.910;2023-09-07T01:24:08;17.70;99.90
38902;DHT22;24661;53.566;9.910;2023-09-07T01:26:34;17.70;99.90
38902;DHT22;24661;53.566;9.910;2023-09-07T01:29:01;17.70;99.90
38902;DHT22;24661;53.566;9.910;2023-09-07T01:31:26;17.70;99.90
38902;DHT22;24661;53.566;9.910;2023-09-07T01:33:52;17.60;99.90
38902;DHT22;24661;53.566;9.910;2023-09-07T01:36:17;17.60;99.90
38902;DHT22;24661;53.566;9.910;2023-09-07T01:38:43;17.60;99.90
38902;DHT22;24661;53.566;9.910;2023-09-07T01:41:09;17.50;99.90
38902;DHT22;24661;53.566;9.910;2023-09-07T01:43:35;17.50;99.90
38902;DHT22;24661;53.566;9.910;2023-09-07T01:46:00;17.50;99.90
38902;DHT22;24661;53.566;9.910;2023-09-07T01:48:26;17.40;99.90
38902;DHT22;24661;53.566;9.910;2023-09-07T01:50:53;18.70;99.90
38902;DHT22;24661;53.566;9.910;2023-09-07T01:53:19;17.40;99.90
38902;DHT22;24661;53.566;9.910;2023-09-07T01:55:44;17.40;99.90
38902;DHT22;24661;53.566;9.910;2023-09-07T01:58:10;17.40;99.90
38902;DHT22;24661;53.566;9.910;2023-09-07T02:00:38;17.30;99.90
38902;DHT22;24661;53.566;9.910;2023-09-07T02:03:07;17.30;99.90
38902;DHT22;24661;53.566;9.910;2023-09-07T02:05:33;17.30;99.90
38902;DHT22;24661;53.566;9.910;2023-09-07T02:07:59;17.20;99.90
38902;DHT22;24661;53.566;9.910;2023-09-07T02:10:24;17.20;99.90
38902;DHT22;24661;53.566;9.910;2023-09-07T02:12:50;17.20;99.90
38902;DHT22;24661;53.566;9.910;2023-09-07T02:15:15;17.20;99.90
38902;DHT22;24661;53.566;9.910;2023-09-07T02:17:41;16.10;99.90
38902;DHT22;24661;53.566;9.910;2023-09-07T02:22:45;17.20;99.90
38902;DHT22;24661;53.566;9.910;2023-09-07T02:25:11;17.10;99.90
38902;DHT22;24661;53.566;9.910;2023-09-07T02:27:36;17.10;99.90
38902;DHT22;24661;53.566;9.910;2023-09-07T02:30:03;17.10;99.90
38902;DHT22;24661;53.566;9.910;2023-09-07T02:32:29;17.00;99.90
38902;DHT22;24661;53.566;9.910;2023-09-07T02:34:54;17.00;99.90
38902;DHT22;24661;53.566;9.910;2023-09-07T02:37:20;17.00;99.90
38902;DHT22;24661;53.566;9.910;2023-09-07T02:39:45;17.00;99.90
38902;DHT22;24661;53.566;9.910;2023-09-07T02:42:11;17.00;99.90
38902;DHT22;24661;53.566;9.910;2023-09-07T02:44:37;17.00;99.90
38902;DHT22;24661;53.566;9.910;2023-09-07T02:47:03;17.00;99.90
38902;DHT22;24661;53.566;9.910;2023-09-07T02:49:29;17.00;99.90
38902;DHT22;24661;53.566;9.910;2023-09-07T02:51:54;17.00;99.90
38902;DHT22;24661;53.566;9.910;2023-09-07T02:54:20;17.00;99.90
38902;DHT22;24661;53.566;9.910;2023-09-07T02:56:45;17.00;99.90
38902;DHT22;24661;53.566;9.910;2023-09-07T02:59:11;16.90;99.90
38902;DHT22;24661;53.566;9.910;2023-09-07T03:01:38;16.90;99.90
38902;DHT22;24661;53.566;9.910;2023-09-07T03:04:04;16.90;99.90
38902;DHT22;24661;53.566;9.910;2023-09-07T03:06:30;16.90;99.90
38902;DHT22;24661;53.566;9.910;2023-09-07T03:08:56;16.90;99.90
38902;DHT22;24661;53.566;9.910;2023-09-07T03:11:22;16.80;99.90
38902;DHT22;24661;53.566;9.910;2023-09-07T03:13:48;16.80;99.90
38902;DHT22;24661;53.566;9.910;2023-09-07T03:16:13;16.90;99.90
38902;DHT22;24661;53.566;9.910;2023-09-07T03:18:39;16.80;99.90
38902;DHT22;24661;53.566;9.910;2023-09-07T03:21:04;16.80;99.90
38902;DHT22;24661;53.566;9.910;2023-09-07T03:23:32;16.80;99.90
38902;DHT22;24661;53.566;9.910;2023-09-07T03:25:58;16.80;99.90
38902;DHT22;24661;53.566;9.910;2023-09-07T03:28:24;16.80;99.90
38902;DHT22;24661;53.566;9.910;2023-09-07T03:30:55;16.80;99.90
38902;DHT22;24661;53.566;9.910;2023-09-07T03:33:22;16.80;99.90
38902;DHT22;24661;53.566;9.910;2023-09-07T03:35:47;16.80;99.90
38902;DHT22;24661;53.566;9.910;2023-09-07T03:38:13;16.80;99.90
38902;DHT22;24661;53.566;9.910;2023-09-07T03:40:39;16.80;99.90
38902;DHT22;24661;53.566;9.910;2023-09-07T03:43:05;16.80;99.90
38902;DHT22;24661;53.566;9.910;2023-09-07T03:45:30;16.80;99.90
38902;DHT22;24661;53.566;9.910;2023-09-07T03:47:56;16.70;99.90
38902;DHT22;24661;53.566;9.910;2023-09-07T03:50:21;16.70;99.90
38902;DHT22;24661;53.566;9.910;2023-09-07T03:52:47;16.70;99.90
38902;DHT22;24661;53.566;9.910;2023-09-07T03:55:13;16.70;99.90
38902;DHT22;24661;53.566;9.910;2023-09-07T03:57:38;16.70;99.90
38902;DHT22;24661;53.566;9.910;2023-09-07T04:00:04;16.80;99.90
38902;DHT22;24661;53.566;9.910;2023-09-07T04:02:33;16.80;99.90
38902;DHT22;24661;53.566;9.910;2023-09-07T04:04:59;16.80;99.90
38902;DHT22;24661;53.566;9.910;2023-09-07T04:07:27;16.90;99.90
38902;DHT22;24661;53.566;9.910;2023-09-07T04:09:52;16.80;99.90
38902;DHT22;24661;53.566;9.910;2023-09-07T04:12:18;16.80;99.90
38902;DHT22;24661;53.566;9.910;2023-09-07T04:14:43;16.80;99.90
38902;DHT22;24661;53.566;9.910;2023-09-07T04:17:10;16.80;99.90
38902;DHT22;24661;53.566;9.910;2023-09-07T04:19:36;16.80;99.90
38902;DHT22;24661;53.566;9.910;2023-09-07T04:22:01;16.80;99.90
38902;DHT22;24661;53.566;9.910;2023-09-07T04:24:27;16.90;99.90
38902;DHT22;24661;53.566;9.910;2023-09-07T04:26:59;16.80;99.90
38902;DHT22;24661;53.566;9.910;2023-09-07T04:29:26;16.80;99.90
38902;DHT22;24661;53.566;9.910;2023-09-07T04:31:52;16.90;99.90
38902;DHT22;24661;53.566;9.910;2023-09-07T04:34:17;16.80;99.90
38902;DHT22;24661;53.566;9.910;2023-09-07T04:36:43;16.80;99.90
38902;DHT22;24661;53.566;9.910;2023-09-07T04:39:08;16.80;99.90
38902;DHT22;24661;53.566;9.910;2023-09-07T04:41:34;16.80;99.90
38902;DHT22;24661;53.566;9.910;2023-09-07T04:43:59;16.80;99.90
38902;DHT22;24661;53.566;9.910;2023-09-07T04:46:25;17.40;99.90
38902;DHT22;24661;53.566;9.910;2023-09-07T04:48:50;16.90;99.90
38902;DHT22;24661;53.566;9.910;2023-09-07T04:51:16;16.90;99.90
38902;DHT22;24661;53.566;9.910;2023-09-07T04:53:42;16.90;99.90
38902;DHT22;24661;53.566;9.910;2023-09-07T04:56:08;16.90;99.90
38902;DHT22;24661;53.566;9.910;2023-09-07T04:58:34;17.00;99.90
38902;DHT22;24661;53.566;9.910;2023-09-07T05:01:07;17.00;99.90
38902;DHT22;24661;53.566;9.910;2023-09-07T05:03:34;17.00;99.90
38902;DHT22;24661;53.566;9.910;2023-09-07T05:06:00;17.00;99.90
38902;DHT22;24661;53.566;9.910;2023-09-07T05:08:26;17.00;99.90
38902;DHT22;24661;53.566;9.910;2023-09-07T05:10:56;17.00;99.90
38902;DHT22;24661;53.566;9.910;2023-09-07T05:13:23;17.10;99.90
38902;DHT22;24661;53.566;9.910;2023-09-07T05:15:49;17.10;99.90
38902;DHT22;24661;53.566;9.910;2023-09-07T05:18:15;17.20;99.90
38902;DHT22;24661;53.566;9.910;2023-09-07T05:20:41;17.20;99.90
38902;DHT22;24661;53.566;9.910;2023-09-07T05:23:06;17.30;99.90
38902;DHT22;24661;53.566;9.910;2023-09-07T05:25:32;17.30;99.90
38902;DHT22;24661;53.566;9.910;2023-09-07T05:27:57;17.40;99.90
38902;DHT22;24661;53.566;9.910;2023-09-07T05:30:23;17.40;99.90
38902;DHT22;24661;53.566;9.910;2023-09-07T05:32:48;17.50;99.90
38902;DHT22;24661;53.566;9.910;2023-09-07T05:35:14;17.60;99.90
38902;DHT22;24661;53.566;9.910;2023-09-07T05:37:42;17.60;99.90
38902;DHT22;24661;53.566;9.910;2023-09-07T05:40:08;17.60;99.90
38902;DHT22;24661;53.566;9.910;2023-09-07T05:42:33;17.70;99.90
38902;DHT22;24661;53.566;9.910;2023-09-07T05:44:59;17.70;99.90
38902;DHT22;24661;53.566;9.910;2023-09-07T05:47:24;17.80;99.90
38902;DHT22;24661;53.566;9.910;2023-09-07T05:49:51;17.80;99.90
38902;DHT22;24661;53.566;9.910;2023-09-07T05:52:17;17.90;99.90
38902;DHT22;24661;53.566;9.910;2023-09-07T05:54:42;17.90;99.90
38902;DHT22;24661;53.566;9.910;2023-09-07T05:57:08;18.00;99.90
38902;DHT22;24661;53.566;9.910;2023-09-07T05:59:34;18.00;99.90
38902;DHT22;24661;53.566;9.910;2023-09-07T06:02:00;18.10;99.90
38902;DHT22;24661;53.566;9.910;2023-09-07T06:04:25;18.10;99.90
38902;DHT22;24661;53.566;9.910;2023-09-07T06:06:51;18.10;99.90
38902;DHT22;24661;53.566;9.910;2023-09-07T06:09:17;18.20;99.90
38902;DHT22;24661;53.566;9.910;2023-09-07T06:11:42;18.30;99.90
38902;DHT22;24661;53.566;9.910;2023-09-07T06:14:08;18.30;99.90
38902;DHT22;24661;53.566;9.910;2023-09-07T06:16:33;18.30;99.90
38902;DHT22;24661;53.566;9.910;2023-09-07T06:19:00;18.40;99.90
38902;DHT22;24661;53.566;9.910;2023-09-07T06:21:25;18.40;99.90
38902;DHT22;24661;53.566;9.910;2023-09-07T06:23:51;18.40;99.90
38902;DHT22;24661;53.566;9.910;2023-09-07T06:26:17;18.50;99.90
38902;DHT22;24661;53.566;9.910;2023-09-07T06:28:43;18.60;99.90
38902;DHT22;24661;53.566;9.910;2023-09-07T06:31:08;18.60;99.90
38902;DHT22;24661;53.566;9.910;2023-09-07T06:33:34;18.70;99.90
38902;DHT22;24661;53.566;9.910;2023-09-07T06:36:00;18.70;99.90
38902;DHT22;24661;53.566;9.910;2023-09-07T06:38:27;18.80;99.90
38902;DHT22;24661;53.566;9.910;2023-09-07T06:40:53;18.90;99.90
38902;DHT22;24661;53.566;9.910;2023-09-07T06:43:19;18.90;99.90
38902;DHT22;24661;53.566;9.910;2023-09-07T06:45:44;19.00;99.90
38902;DHT22;24661;53.566;9.910;2023-09-07T06:48:10;19.10;99.90
38902;DHT22;24661;53.566;9.910;2023-09-07T06:50:36;19.10;99.90
38902;DHT22;24661;53.566;9.910;2023-09-07T06:53:02;19.20;99.90
38902;DHT22;24661;53.566;9.910;2023-09-07T06:55:28;19.30;99.90
38902;DHT22;24661;53.566;9.910;2023-09-07T06:57:54;19.40;99.90
38902;DHT22;24661;53.566;9.910;2023-09-07T07:00:21;19.40;99.90
38902;DHT22;24661;53.566;9.910;2023-09-07T07:02:46;19.50;99.90
38902;DHT22;24661;53.566;9.910;2023-09-07T07:05:12;19.60;99.90
38902;DHT22;24661;53.566;9.910;2023-09-07T07:07:39;19.60;99.90
38902;DHT22;24661;53.566;9.910;2023-09-07T07:10:05;19.70;99.90
38902;DHT22;24661;53.566;9.910;2023-09-07T07:12:31;19.70;99.90
38902;DHT22;24661;53.566;9.910;2023-09-07T07:15:00;19.90;99.90
38902;DHT22;24661;53.566;9.910;2023-09-07T07:17:25;19.90;99.90
38902;DHT22;24661;53.566;9.910;2023-09-07T07:19:51;20.00;99.90
38902;DHT22;24661;53.566;9.910;2023-09-07T07:22:17;20.10;99.90
38902;DHT22;24661;53.566;9.910;2023-09-07T07:24:42;20.20;99.90
38902;DHT22;24661;53.566;9.910;2023-09-07T07:27:08;20.20;99.90
38902;DHT22;24661;53.566;9.910;2023-09-07T07:29:36;20.00;99.90
38902;DHT22;24661;53.566;9.910;2023-09-07T07:32:02;20.30;99.90
38902;DHT22;24661;53.566;9.910;2023-09-07T07:34:29;20.50;99.90
38902;DHT22;24661;53.566;9.910;2023-09-07T07:36:54;20.60;99.90
38902;DHT22;24661;53.566;9.910;2023-09-07T07:39:20;20.60;99.90
38902;DHT22;24661;53.566;9.910;2023-09-07T07:41:46;20.70;99.90
38902;DHT22;24661;53.566;9.910;2023-09-07T07:44:11;20.90;99.90
38902;DHT22;24661;53.566;9.910;2023-09-07T07:46:37;21.10;99.90
38902;DHT22;24661;53.566;9.910;2023-09-07T07:49:02;21.10;99.90
38902;DHT22;24661;53.566;9.910;2023-09-07T07:51:28;21.20;99.90
38902;DHT22;24661;53.566;9.910;2023-09-07T07:53:55;21.30;99.90
38902;DHT22;24661;53.566;9.910;2023-09-07T07:56:22;21.40;99.90
38902;DHT22;24661;53.566;9.910;2023-09-07T07:58:48;21.50;99.90
38902;DHT22;24661;53.566;9.910;2023-09-07T08:01:19;21.60;99.90
38902;DHT22;24661;53.566;9.910;2023-09-07T08:03:46;21.70;99.90
38902;DHT22;24661;53.566;9.910;2023-09-07T08:06:11;21.80;99.90
38902;DHT22;24661;53.566;9.910;2023-09-07T08:08:38;21.90;99.90
38902;DHT22;24661;53.566;9.910;2023-09-07T08:11:04;22.00;99.90
38902;DHT22;24661;53.566;9.910;2023-09-07T08:13:33;22.00;99.90
38902;DHT22;24661;53.566;9.910;2023-09-07T08:16:03;22.10;99.90
38902;DHT22;24661;53.566;9.910;2023-09-07T08:18:35;22.20;99.90
38902;DHT22;24661;53.566;9.910;2023-09-07T08:21:01;22.30;99.90
38902;DHT22;24661;53.566;9.910;2023-09-07T08:23:26;22.50;99.90
38902;DHT22;24661;53.566;9.910;2023-09-07T08:25:52;22.60;99.90
38902;DHT22;24661;53.566;9.910;2023-09-07T08:28:18;22.70;99.90
38902;DHT22;24661;53.566;9.910;2023-09-07T08:30:44;22.80;99.90
38902;DHT22;24661;53.566;9.910;2023-09-07T08:33:10;23.00;99.90
38902;DHT22;24661;53.566;9.910;2023-09-07T08:35:36;23.10;99.90
38902;DHT22;24661;53.566;9.910;2023-09-07T08:38:09;23.20;99.90
38902;DHT22;24661;53.566;9.910;2023-09-07T08:40:35;23.30;99.90
38902;DHT22;24661;53.566;9.910;2023-09-07T08:43:04;23.40;99.90
38902;DHT22;24661;53.566;9.910;2023-09-07T08:45:31;23.50;99.90
38902;DHT22;24661;53.566;9.910;2023-09-07T08:48:03;23.60;99.90
38902;DHT22;24661;53.566;9.910;2023-09-07T08:50:30;23.70;99.90
38902;DHT22;24661;53.566;9.910;2023-09-07T08:52:56;23.80;99.90
38902;DHT22;24661;53.566;9.910;2023-09-07T08:55:24;23.80;99.90
38902;DHT22;24661;53.566;9.910;2023-09-07T08:57:50;23.90;99.90
38902;DHT22;24661;53.566;9.910;2023-09-07T09:00:16;24.00;99.90
38902;DHT22;24661;53.566;9.910;2023-09-07T09:02:42;24.10;99.90
38902;DHT22;24661;53.566;9.910;2023-09-07T09:05:12;24.20;99.90
38902;DHT22;24661;53.566;9.910;2023-09-07T09:07:39;24.30;99.90
38902;DHT22;24661;53.566;9.910;2023-09-07T09:10:06;24.40;99.90
38902;DHT22;24661;53.566;9.910;2023-09-07T09:12:32;24.50;99.90
38902;DHT22;24661;53.566;9.910;2023-09-07T09:15:00;24.60;99.90
38902;DHT22;24661;53.566;9.910;2023-09-07T09:17:29;24.70;99.90
38902;DHT22;24661;53.566;9.910;2023-09-07T09:19:54;24.70;99.90
38902;DHT22;24661;53.566;9.910;2023-09-07T09:22:20;24.80;99.90
38902;DHT22;24661;53.566;9.910;2023-09-07T09:24:49;24.80;99.90
38902;DHT22;24661;53.566;9.910;2023-09-07T09:27:16;24.90;99.90
38902;DHT22;24661;53.566;9.910;2023-09-07T09:29:42;25.00;99.90
38902;DHT22;24661;53.566;9.910;2023-09-07T09:32:08;25.10;99.90
38902;DHT22;24661;53.566;9.910;2023-09-07T09:34:35;25.20;99.90
38902;DHT22;24661;53.566;9.910;2023-09-07T09:37:01;25.30;99.90
38902;DHT22;24661;53.566;9.910;2023-09-07T09:39:29;25.40;99.90
38902;DHT22;24661;53.566;9.910;2023-09-07T09:41:55;25.50;99.90
38902;DHT22;24661;53.566;9.910;2023-09-07T09:44:22;25.50;99.90
38902;DHT22;24661;53.566;9.910;2023-09-07T09:46:53;25.50;99.90
38902;DHT22;24661;53.566;9.910;2023-09-07T09:49:22;25.50;99.90
38902;DHT22;24661;53.566;9.910;2023-09-07T09:51:51;25.50;99.90
38902;DHT22;24661;53.566;9.910;2023-09-07T09:54:17;25.60;99.90
38902;DHT22;24661;53.566;9.910;2023-09-07T09:56:43;25.70;99.90
38902;DHT22;24661;53.566;9.910;2023-09-07T09:59:10;25.80;99.90
38902;DHT22;24661;53.566;9.910;2023-09-07T10:01:47;25.80;99.90
38902;DHT22;24661;53.566;9.910;2023-09-07T10:04:14;25.90;99.90
38902;DHT22;24661;53.566;9.910;2023-09-07T10:06:52;25.90;99.90
38902;DHT22;24661;53.566;9.910;2023-09-07T10:09:19;25.90;99.90
38902;DHT22;24661;53.566;9.910;2023-09-07T10:11:51;26.00;99.90
38902;DHT22;24661;53.566;9.910;2023-09-07T10:14:18;26.00;99.90
38902;DHT22;24661;53.566;9.910;2023-09-07T10:16:45;26.00;99.90
38902;DHT22;24661;53.566;9.910;2023-09-07T10:19:21;26.10;99.90
38902;DHT22;24661;53.566;9.910;2023-09-07T10:21:47;26.20;99.90
38902;DHT22;24661;53.566;9.910;2023-09-07T10:24:33;26.30;99.90
38902;DHT22;24661;53.566;9.910;2023-09-07T10:27:10;26.30;99.90
38902;DHT22;24661;53.566;9.910;2023-09-07T10:29:44;26.20;99.90
38902;DHT22;24661;53.566;9.910;2023-09-07T10:32:10;26.30;99.90
38902;DHT22;24661;53.566;9.910;2023-09-07T10:34:38;26.40;99.90
38902;DHT22;24661;53.566;9.910;2023-09-07T10:37:05;26.40;99.90
38902;DHT22;24661;53.566;9.910;2023-09-07T10:39:32;26.50;99.90
38902;DHT22;24661;53.566;9.910;2023-09-07T10:41:58;26.40;99.90
38902;DHT22;24661;53.566;9.910;2023-09-07T10:44:29;26.50;99.90
38902;DHT22;24661;53.566;9.910;2023-09-07T10:46:57;26.40;99.90
38902;DHT22;24661;53.566;9.910;2023-09-07T10:49:23;26.50;99.90
38902;DHT22;24661;53.566;9.910;2023-09-07T10:51:48;26.40;99.90
38902;DHT22;24661;53.566;9.910;2023-09-07T10:54:18;26.30;99.90
38902;DHT22;24661;53.566;9.910;2023-09-07T10:56:45;26.50;99.90
38902;DHT22;24661;53.566;9.910;2023-09-07T10:59:12;26.50;99.90
38902;DHT22;24661;53.566;9.910;2023-09-07T11:01:38;26.50;99.90
38902;DHT22;24661;53.566;9.910;2023-09-07T11:04:04;26.50;99.90
38902;DHT22;24661;53.566;9.910;2023-09-07T11:06:30;26.50;99.90
38902;DHT22;24661;53.566;9.910;2023-09-07T11:08:59;26.50;99.90
38902;DHT22;24661;53.566;9.910;2023-09-07T11:11:25;26.50;99.90
38902;DHT22;24661;53.566;9.910;2023-09-07T11:13:51;26.60;99.90
38902;DHT22;24661;53.566;9.910;2023-09-07T11:16:17;26.60;99.90
38902;DHT22;24661;53.566;9.910;2023-09-07T11:18:42;26.80;99.90
38902;DHT22;24661;53.566;9.910;2023-09-07T11:21:10;26.90;99.90
38902;DHT22;24661;53.566;9.910;2023-09-07T11:23:35;26.90;99.90
38902;DHT22;24661;53.566;9.910;2023-09-07T11:26:05;26.90;99.90
38902;DHT22;24661;53.566;9.910;2023-09-07T11:28:31;26.90;99.90
38902;DHT22;24661;53.566;9.910;2023-09-07T11:30:58;26.90;99.90
38902;DHT22;24661;53.566;9.910;2023-09-07T11:33:24;27.00;99.90
38902;DHT22;24661;53.566;9.910;2023-09-07T11:35:50;27.00;99.90
38902;DHT22;24661;53.566;9.910;2023-09-07T11:38:16;27.00;99.90
38902;DHT22;24661;53.566;9.910;2023-09-07T11:40:43;27.10;99.90
38902;DHT22;24661;53.566;9.910;2023-09-07T11:43:16;27.10;99.90
38902;DHT22;24661;53.566;9.910;2023-09-07T11:45:45;27.10;99.90
38902;DHT22;24661;53.566;9.910;2023-09-07T11:48:11;27.10;99.90
38902;DHT22;24661;53.566;9.910;2023-09-07T11:50:37;27.10;99.90
38902;DHT22;24661;53.566;9.910;2023-09-07T11:53:04;27.10;99.90
38902;DHT22;24661;53.566;9.910;2023-09-07T11:55:30;27.10;99.90
38902;DHT22;24661;53.566;9.910;2023-09-07T11:57:56;27.10;99.90
38902;DHT22;24661;53.566;9.910;2023-09-07T12:00:22;27.10;99.90
38902;DHT22;24661;53.566;9.910;2023-09-07T12:02:48;27.20;99.90
38902;DHT22;24661;53.566;9.910;2023-09-07T12:05:14;27.20;99.90
38902;DHT22;24661;53.566;9.910;2023-09-07T12:07:42;27.20;99.90
38902;DHT22;24661;53.566;9.910;2023-09-07T12:10:11;27.10;99.90
38902;DHT22;24661;53.566;9.910;2023-09-07T12:12:39;27.10;99.90
38902;DHT22;24661;53.566;9.910;2023-09-07T12:15:06;27.20;99.90
38902;DHT22;24661;53.566;9.910;2023-09-07T12:17:32;27.30;99.90
38902;DHT22;24661;53.566;9.910;2023-09-07T12:19:58;27.30;99.90
38902;DHT22;24661;53.566;9.910;2023-09-07T12:22:24;27.40;99.90
38902;DHT22;24661;53.566;9.910;2023-09-07T12:24:49;27.40;99.90
38902;DHT22;24661;53.566;9.910;2023-09-07T12:27:15;27.40;99.90
38902;DHT22;24661;53.566;9.910;2023-09-07T12:29:41;27.40;99.90
38902;DHT22;24661;53.566;9.910;2023-09-07T12:32:06;27.50;99.90
38902;DHT22;24661;53.566;9.910;2023-09-07T12:34:32;27.60;99.90
38902;DHT22;24661;53.566;9.910;2023-09-07T12:36:58;27.60;99.90
38902;DHT22;24661;53.566;9.910;2023-09-07T12:39:24;27.60;99.90
38902;DHT22;24661;53.566;9.910;2023-09-07T12:41:50;27.70;99.90
38902;DHT22;24661;53.566;9.910;2023-09-07T12:44:15;27.60;99.90
38902;DHT22;24661;53.566;9.910;2023-09-07T12:46:43;27.60;99.90
38902;DHT22;24661;53.566;9.910;2023-09-07T12:49:09;27.60;99.90
38902;DHT22;24661;53.566;9.910;2023-09-07T12:51:35;27.80;99.90
38902;DHT22;24661;53.566;9.910;2023-09-07T12:54:00;27.70;99.90
38902;DHT22;24661;53.566;9.910;2023-09-07T12:56:26;27.70;99.90
38902;DHT22;24661;53.566;9.910;2023-09-07T12:58:51;27.60;99.90
38902;DHT22;24661;53.566;9.910;2023-09-07T13:01:17;27.60;99.90
38902;DHT22;24661;53.566;9.910;2023-09-07T13:03:43;27.60;99.90
38902;DHT22;24661;53.566;9.910;2023-09-07T13:06:09;27.60;99.90
38902;DHT22;24661;53.566;9.910;2023-09-07T13:08:35;27.70;99.90
38902;DHT22;24661;53.566;9.910;2023-09-07T13:11:00;27.70;99.90
38902;DHT22;24661;53.566;9.910;2023-09-07T13:13:26;27.80;99.90
38902;DHT22;24661;53.566;9.910;2023-09-07T13:15:55;27.70;99.90
38902;DHT22;24661;53.566;9.910;2023-09-07T13:18:21;27.80;99.90
38902;DHT22;24661;53.566;9.910;2023-09-07T13:20:47;27.80;99.90
38902;DHT22;24661;53.566;9.910;2023-09-07T13:23:15;27.80;99.90
38902;DHT22;24661;53.566;9.910;2023-09-07T13:25:41;28.10;99.90
38902;DHT22;24661;53.566;9.910;2023-09-07T13:28:06;28.10;99.90
38902;DHT22;24661;53.566;9.910;2023-09-07T13:30:32;27.90;99.90
38902;DHT22;24661;53.566;9.910;2023-09-07T13:32:57;27.90;99.90
38902;DHT22;24661;53.566;9.910;2023-09-07T13:35:23;27.90;99.90
38902;DHT22;24661;53.566;9.910;2023-09-07T13:37:48;28.00;99.90
38902;DHT22;24661;53.566;9.910;2023-09-07T13:40:14;27.90;99.90
38902;DHT22;24661;53.566;9.910;2023-09-07T13:42:40;28.00;99.90
38902;DHT22;24661;53.566;9.910;2023-09-07T13:45:06;28.10;99.90
38902;DHT22;24661;53.566;9.910;2023-09-07T13:47:32;28.00;99.90
38902;DHT22;24661;53.566;9.910;2023-09-07T13:49:57;27.90;99.90
38902;DHT22;24661;53.566;9.910;2023-09-07T13:52:23;28.10;99.90
38902;DHT22;24661;53.566;9.910;2023-09-07T13:54:48;28.30;99.90
38902;DHT22;24661;53.566;9.910;2023-09-07T13:57:14;28.60;99.90
38902;DHT22;24661;53.566;9.910;2023-09-07T13:59:40;29.00;99.90
38902;DHT22;24661;53.566;9.910;2023-09-07T14:02:05;29.30;99.90
38902;DHT22;24661;53.566;9.910;2023-09-07T14:04:31;29.40;99.90
38902;DHT22;24661;53.566;9.910;2023-09-07T14:06:56;29.20;99.90
38902;DHT22;24661;53.566;9.910;2023-09-07T14:09:23;28.90;99.90
38902;DHT22;24661;53.566;9.910;2023-09-07T14:11:49;28.60;99.90
38902;DHT22;24661;53.566;9.910;2023-09-07T14:14:14;28.40;99.90
38902;DHT22;24661;53.566;9.910;2023-09-07T14:16:41;28.10;99.90
38902;DHT22;24661;53.566;9.910;2023-09-07T14:19:07;28.00;99.90
38902;DHT22;24661;53.566;9.910;2023-09-07T14:21:32;27.90;99.90
38902;DHT22;24661;53.566;9.910;2023-09-07T14:23:58;27.70;99.90
38902;DHT22;24661;53.566;9.910;2023-09-07T14:26:24;27.60;99.90
38902;DHT22;24661;53.566;9.910;2023-09-07T14:28:49;27.60;99.90
38902;DHT22;24661;53.566;9.910;2023-09-07T14:31:15;27.70;99.90
38902;DHT22;24661;53.566;9.910;2023-09-07T14:33:41;27.50;99.90
38902;DHT22;24661;53.566;9.910;2023-09-07T14:36:08;27.50;99.90
38902;DHT22;24661;53.566;9.910;2023-09-07T14:38:37;27.50;99.90
38902;DHT22;24661;53.566;9.910;2023-09-07T14:41:06;27.60;99.90
38902;DHT22;24661;53.566;9.910;2023-09-07T14:43:32;27.50;99.90
38902;DHT22;24661;53.566;9.910;2023-09-07T14:45:58;27.40;99.90
38902;DHT22;24661;53.566;9.910;2023-09-07T14:48:24;27.30;99.90
38902;DHT22;24661;53.566;9.910;2023-09-07T14:50:50;27.30;99.90
38902;DHT22;24661;53.566;9.910;2023-09-07T14:53:16;27.40;99.90
38902;DHT22;24661;53.566;9.910;2023-09-07T14:55:42;27.40;99.90
38902;DHT22;24661;53.566;9.910;2023-09-07T14:58:08;27.30;99.90
38902;DHT22;24661;53.566;9.910;2023-09-07T15:00:35;27.20;99.90
38902;DHT22;24661;53.566;9.910;2023-09-07T15:03:01;27.20;99.90
38902;DHT22;24661;53.566;9.910;2023-09-07T15:05:27;27.10;99.90
38902;DHT22;24661;53.566;9.910;2023-09-07T15:07:53;27.00;99.90
38902;DHT22;24661;53.566;9.910;2023-09-07T15:10:19;27.10;99.90
38902;DHT22;24661;53.566;9.910;2023-09-07T15:12:45;27.10;99.90
38902;DHT22;24661;53.566;9.910;2023-09-07T15:15:10;27.10;99.90
38902;DHT22;24661;53.566;9.910;2023-09-07T15:17:39;27.00;99.90
38902;DHT22;24661;53.566;9.910;2023-09-07T15:20:08;26.90;99.90
38902;DHT22;24661;53.566;9.910;2023-09-07T15:22:34;27.00;99.90
38902;DHT22;24661;53.566;9.910;2023-09-07T15:24:59;27.20;99.90
38902;DHT22;24661;53.566;9.910;2023-09-07T15:27:26;27.30;99.90